Kramer, ND

11:10 PM CST on December 14, 2019 (GMT -0600)
Bottineau | | Change Station
Active Advisory: Wind Chill Advisory

Elev 1519 ft 48.81 °N, 100.57 °W | Updated 31 seconds ago

Overcast
Overcast
-3.6 °F
Feels Like -14 °F
N
4.5
Wind Variable Wind from SE
Gusts 4.5 mph

Today
High -- | Low -- °F
--% Chance of Precip.
Yesterday
High -- | Low -- °F
Precip. -- in
Pressure 30.01 in
Visibility 5.0 miles
Clouds Mostly Cloudy 1700 ft
Mostly Cloudy 3000 ft
Windchill -14 °F
Dew Point -6 °F
Humidity 87%
Rainfall 0.00 in
Snow Depth Not available.
8:28 AM 4:46 PM
Waning Gibbous, 90% visible
METAR KMIB 150456Z AUTO 16007KT 5SM -SN BKN017 BKN030 M16/M19 A2986 RMK AO2 SNB33 BKN017 V OVC SLP163 P0000 T11631188 $
Pressure 30.01 in
Visibility 5.0 miles
Clouds Mostly Cloudy 1700 ft
Mostly Cloudy 3000 ft
Windchill -14 °F
Dew Point -6 °F
Humidity 87%
Rainfall 0.00 in
Snow Depth Not available.
8:28 AM 4:46 PM
Waning Gibbous, 90% visible
METAR KMIB 150456Z AUTO 16007KT 5SM -SN BKN017 BKN030 M16/M19 A2986 RMK AO2 SNB33 BKN017 V OVC SLP163 P0000 T11631188 $

Get Your Daily Forecast Email!

Thanks for signing up!

Be on the lookout for a verification email in your inbox.

You'll start receiving severe weather alerts in your inbox..

×

10-Day Weather Forecast

Almanac

Astronomy

Dec. 14, 2019 Rise Set
Actual Time
Civil Twilight
Nautical Twilight
Astronomical Twilight
Moon
Length of Visible Light
Length of Day
Tomorrow will be .
, % of the Moon is Illuminated

Today's Extremes

State Highs State Lows

Community

WunderPhotos

Category 6

Welcome to Category 6. This is the collective home for Weather Underground's featured writeups by Dr. Jeff Masters (right), Bob Henson (left), Chris Burt, and other regular contributors.

Nearby

Air Quality

  Air Quality AQ Index Pollutant
Not available.

Snow Depth

Station Depth Elevation

Earthquake Activity

City Distance Mag. Time & Date
Minimum magnitude displayed is 2.5.

Coastal Water Temperatures

Place Temperature

Stations

Nearby Weather Stations

Station Location Temp. Windchill Dew Point Humidity Wind Precip. Elev Updated Type
                   

Watches & Warnings

Wind Chill Advisory
Issued: 2:52 PM CST Dec. 14, 2019 – National Weather Service

... Wind Chill Advisory in effect from 9 PM this evening to 6 am
CST Sunday...

* what... very cold wind chills expected. Wind chills as low as
30 below zero.

* Where... Bottineau, Rolette, McHenry, Pierce, Wells, Foster, and
Stutsman counties.

* When... from 9 PM this evening to 6 am CST Sunday.

* Impacts... the cold wind chills could cause frostbite on
exposed skin in as little as 30 minutes.

Precautionary/preparedness actions...

Use caution if planning outdoor activities. Make sure to cover
exposed skin.



Njh